createdAt,value
2019-01-05T00:00:02.432Z,21.36
2019-01-05T00:02:55.568Z,21.33
2019-01-05T00:05:42.682Z,21.35
2019-01-05T00:08:39.869Z,21.30
2019-01-05T00:11:24.834Z,21.38
2019-01-05T00:14:20.850Z,21.32
2019-01-05T00:17:19.999Z,21.34
2019-01-05T00:20:15.021Z,21.32
2019-01-05T00:23:17.467Z,21.34
2019-01-05T00:26:07.661Z,21.41
2019-01-05T00:29:10.206Z,21.35
2019-01-05T00:31:59.789Z,21.27
2019-01-05T00:34:47.799Z,21.32
2019-01-05T00:37:34.157Z,21.39
2019-01-05T00:40:20.508Z,21.32
2019-01-05T00:43:06.253Z,21.37
2019-01-05T00:45:52.290Z,21.23
2019-01-05T00:48:38.339Z,21.35
2019-01-05T00:51:21.174Z,21.35
2019-01-05T00:54:11.066Z,21.38
2019-01-05T00:57:06.242Z,21.32
2019-01-05T00:59:56.218Z,21.40
2019-01-05T01:02:49.344Z,21.38
2019-01-05T01:05:35.091Z,21.35
2019-01-05T01:08:24.933Z,21.33
2019-01-05T01:11:24.194Z,21.39
2019-01-05T01:14:10.218Z,21.38
2019-01-05T01:16:55.951Z,21.41
2019-01-05T01:19:46.325Z,21.35
2019-01-05T01:22:32.021Z,21.31
2019-01-05T01:25:27.883Z,21.27
2019-01-05T01:28:33.333Z,21.32
2019-01-05T01:31:18.241Z,21.35
2019-01-05T01:34:02.804Z,21.39
2019-01-05T01:36:45.105Z,21.32
2019-01-05T01:39:53.129Z,21.33
2019-01-05T01:42:40.273Z,21.31
2019-01-05T01:45:31.246Z,21.43
2019-01-05T01:48:10.167Z,21.35
2019-01-05T01:50:56.142Z,21.36
2019-01-05T01:53:43.258Z,21.37
2019-01-05T01:56:29.688Z,21.45
2019-01-05T01:59:27.143Z,21.41
2019-01-05T02:02:13.402Z,21.32
2019-01-05T02:05:09.876Z,21.42
2019-01-05T02:07:57.037Z,21.38
2019-01-05T02:10:43.659Z,21.32
2019-01-05T02:13:31.429Z,21.45
2019-01-05T02:16:33.090Z,21.37
2019-01-05T02:19:40.607Z,21.40
2019-01-05T02:22:44.457Z,21.33
2019-01-05T02:25:49.014Z,21.39
2019-01-05T02:28:56.870Z,21.39
2019-01-05T02:32:01.006Z,21.37
2019-01-05T02:35:16.148Z,21.34
2019-01-05T02:38:09.073Z,21.29
2019-01-05T02:41:08.102Z,21.31
2019-01-05T02:44:19.126Z,21.34
2019-01-05T02:47:38.732Z,21.28
2019-01-05T02:50:15.363Z,21.35
2019-01-05T02:53:30.774Z,21.33
2019-01-05T02:56:41.569Z,21.34
2019-01-05T02:59:49.950Z,21.39
2019-01-05T03:03:26.101Z,21.36
2019-01-05T03:06:19.925Z,21.30
2019-01-05T03:09:23.868Z,21.33
2019-01-05T03:12:28.910Z,21.47
2019-01-05T03:15:31.869Z,21.42
2019-01-05T03:18:27.726Z,21.42
2019-01-05T03:21:36.518Z,21.37
2019-01-05T03:24:40.626Z,21.34
2019-01-05T03:27:49.561Z,21.36
2019-01-05T03:31:06.727Z,21.34
2019-01-05T03:34:01.153Z,21.36
2019-01-05T03:37:06.303Z,21.40
2019-01-05T03:40:18.229Z,21.39
2019-01-05T03:43:21.990Z,21.31
2019-01-05T03:46:43.195Z,21.34
2019-01-05T03:49:47.422Z,21.36
2019-01-05T03:53:01.113Z,21.26
2019-01-05T03:56:12.038Z,21.30
2019-01-05T03:59:04.178Z,21.30
2019-01-05T04:02:19.631Z,21.28
2019-01-05T04:05:25.036Z,21.34
2019-01-05T04:08:21.483Z,21.31
2019-01-05T04:11:54.303Z,21.34
2019-01-05T04:14:43.648Z,21.36
2019-01-05T04:18:06.598Z,21.38
2019-01-05T04:21:13.153Z,21.33
2019-01-05T04:24:33.541Z,21.34
2019-01-05T04:27:24.344Z,21.27
2019-01-05T04:30:32.330Z,21.35
2019-01-05T04:33:38.441Z,21.34
2019-01-05T04:36:34.840Z,21.32
2019-01-05T04:39:48.846Z,21.35
2019-01-05T04:42:40.555Z,21.38
2019-01-05T04:45:58.932Z,21.34
2019-01-05T04:49:05.171Z,21.33
2019-01-05T04:52:19.323Z,21.29
2019-01-05T04:55:41.444Z,21.37
2019-01-05T04:58:46.597Z,21.35
2019-01-05T05:01:49.657Z,21.22
2019-01-05T05:05:04.950Z,21.31
2019-01-05T05:08:26.128Z,21.22
2019-01-05T05:11:41.887Z,21.39
2019-01-05T05:14:57.174Z,21.32
2019-01-05T05:17:58.723Z,21.32
2019-01-05T05:21:04.310Z,21.37
2019-01-05T05:24:08.308Z,21.35
2019-01-05T05:27:09.022Z,21.35
2019-01-05T05:30:39.563Z,21.29
2019-01-05T05:33:56.649Z,21.37
2019-01-05T05:37:19.934Z,21.28
2019-01-05T05:40:39.673Z,21.32
2019-01-05T05:43:50.958Z,21.34
2019-01-05T05:47:02.234Z,21.38
2019-01-05T05:50:20.642Z,21.38
2019-01-05T05:53:16.139Z,21.38
2019-01-05T05:56:26.898Z,21.38
2019-01-05T05:59:31.470Z,21.36
2019-01-05T06:02:36.454Z,21.36
2019-01-05T06:05:53.670Z,21.41
2019-01-05T06:08:57.548Z,21.37
2019-01-05T06:12:01.818Z,21.39
2019-01-05T06:15:06.077Z,21.45
2019-01-05T06:18:21.026Z,21.36
2019-01-05T06:21:27.234Z,21.43
2019-01-05T06:24:38.051Z,21.32
2019-01-05T06:28:11.448Z,21.39
2019-01-05T06:31:16.960Z,21.34
2019-01-05T06:34:26.382Z,21.40
2019-01-05T06:37:24.407Z,21.34
2019-01-05T06:40:37.351Z,21.41
2019-01-05T06:43:55.309Z,21.35
2019-01-05T06:47:12.331Z,21.35
2019-01-05T06:50:18.573Z,21.39
2019-01-05T06:53:26.814Z,21.37
2019-01-05T06:56:46.595Z,21.35
2019-01-05T06:59:57.217Z,21.35
2019-01-05T07:03:10.132Z,21.36
2019-01-05T07:06:04.257Z,20.98
2019-01-05T07:09:14.834Z,21.39
2019-01-05T07:12:29.099Z,21.44
2019-01-05T07:15:59.098Z,21.45
2019-01-05T07:19:02.875Z,21.36
2019-01-05T07:22:39.346Z,21.38
2019-01-05T07:26:02.389Z,21.38
2019-01-05T07:29:16.854Z,21.39
2019-01-05T07:32:22.089Z,21.36
2019-01-05T07:35:25.634Z,21.34
2019-01-05T07:38:33.829Z,21.45
2019-01-05T07:41:42.814Z,21.39
2019-01-05T07:44:50.065Z,21.46
2019-01-05T07:47:53.878Z,21.44
2019-01-05T07:51:08.726Z,21.40
2019-01-05T07:54:12.641Z,21.42
2019-01-05T07:57:36.865Z,21.40
2019-01-05T08:00:48.808Z,21.42
2019-01-05T08:03:54.535Z,21.44
2019-01-05T08:06:51.123Z,21.45
2019-01-05T08:09:55.986Z,21.48
2019-01-05T08:13:04.078Z,21.45
2019-01-05T08:16:07.987Z,21.41
2019-01-05T08:19:28.902Z,21.45
2019-01-05T08:22:50.149Z,21.33
2019-01-05T08:25:54.890Z,21.42
2019-01-05T08:29:09.222Z,21.51
2019-01-05T08:32:21.891Z,21.49
2019-01-05T08:35:19.654Z,21.46
2019-01-05T08:38:25.696Z,21.49
2019-01-05T08:41:42.914Z,21.49
2019-01-05T08:44:44.181Z,21.45
2019-01-05T08:47:52.243Z,21.50
2019-01-05T08:51:02.650Z,21.47
2019-01-05T08:54:23.970Z,21.43
2019-01-05T08:57:28.969Z,21.47
2019-01-05T09:00:32.706Z,21.45
2019-01-05T09:03:56.886Z,21.52
2019-01-05T09:07:00.333Z,21.36
2019-01-05T09:10:09.851Z,21.47
2019-01-05T09:13:05.994Z,21.44
2019-01-05T09:16:33.618Z,21.51
2019-01-05T09:19:51.888Z,21.52
2019-01-05T09:23:21.983Z,21.47
2019-01-05T09:26:52.182Z,21.49
2019-01-05T09:29:59.954Z,21.48
2019-01-05T09:33:01.734Z,21.44
2019-01-05T09:36:23.302Z,21.48
2019-01-05T09:39:30.524Z,21.50
2019-01-05T09:42:34.789Z,21.55
2019-01-05T09:45:39.589Z,21.55
2019-01-05T09:48:37.219Z,21.54
2019-01-05T09:51:48.633Z,21.51
2019-01-05T09:55:29.330Z,21.63
2019-01-05T09:58:24.854Z,21.58
2019-01-05T10:01:32.481Z,21.56
2019-01-05T10:04:43.224Z,21.59
2019-01-05T10:07:52.333Z,21.54
2019-01-05T10:11:07.321Z,21.51
2019-01-05T10:14:12.537Z,21.56
2019-01-05T10:17:16.454Z,21.54
2019-01-05T10:20:27.821Z,21.58
2019-01-05T10:23:34.426Z,21.52
2019-01-05T10:30:04.774Z,21.58
2019-01-05T10:33:22.120Z,21.51
2019-01-05T10:36:20.003Z,21.58
2019-01-05T10:39:31.813Z,21.52
2019-01-05T10:43:03.243Z,21.53
2019-01-05T10:46:08.265Z,21.58
2019-01-05T10:49:13.141Z,21.56
2019-01-05T10:52:19.779Z,21.55
2019-01-05T10:55:47.465Z,21.06
2019-01-05T10:58:55.148Z,21.60
2019-01-05T11:01:52.225Z,21.53
2019-01-05T11:05:09.130Z,21.61
2019-01-05T11:08:29.982Z,21.60
2019-01-05T11:11:34.911Z,21.59
2019-01-05T11:14:49.002Z,21.54
2019-01-05T11:18:01.184Z,21.56
2019-01-05T11:21:03.429Z,21.56
2019-01-05T11:24:03.090Z,21.56
2019-01-05T11:27:21.054Z,21.59
2019-01-05T11:30:34.846Z,21.58
2019-01-05T11:33:40.024Z,21.57
2019-01-05T11:36:46.199Z,21.56
2019-01-05T11:40:09.135Z,21.62
2019-01-05T11:43:11.165Z,21.66
2019-01-05T11:46:23.122Z,21.62
2019-01-05T11:49:27.369Z,21.58
2019-01-05T11:52:48.651Z,21.61
2019-01-05T11:55:53.473Z,21.59
2019-01-05T11:59:00.891Z,21.43
2019-01-05T12:01:56.088Z,21.54
2019-01-05T12:05:04.094Z,21.54
2019-01-05T12:08:19.573Z,21.63
2019-01-05T12:11:27.094Z,21.56
2019-01-05T12:14:27.862Z,21.57
2019-01-05T12:17:32.874Z,21.65
2019-01-05T12:20:25.989Z,21.61
2019-01-05T12:23:51.180Z,21.59
2019-01-05T12:27:07.050Z,21.55
2019-01-05T12:30:20.257Z,21.54
2019-01-05T12:33:47.751Z,21.59
2019-01-05T12:37:08.011Z,21.56
2019-01-05T12:40:06.175Z,21.55
2019-01-05T12:43:10.530Z,21.55
2019-01-05T12:46:04.587Z,21.49
2019-01-05T12:49:28.181Z,21.50
2019-01-05T12:52:46.227Z,21.50
2019-01-05T12:55:55.194Z,21.48
2019-01-05T12:59:04.602Z,21.46
2019-01-05T13:02:08.326Z,21.50
2019-01-05T13:05:23.378Z,21.49
2019-01-05T13:08:35.170Z,21.50
2019-01-05T13:11:56.178Z,21.53
2019-01-05T13:15:14.345Z,21.47
2019-01-05T13:18:25.291Z,21.53
2019-01-05T13:21:46.583Z,21.46
2019-01-05T13:25:07.802Z,21.50
2019-01-05T13:28:15.005Z,21.46
2019-01-05T13:31:36.581Z,21.44
2019-01-05T13:34:53.293Z,21.41
2019-01-05T13:38:17.690Z,21.47
2019-01-05T13:41:31.524Z,21.42
2019-01-05T13:44:32.437Z,21.40
2019-01-05T13:47:46.566Z,21.35
2019-01-05T13:51:13.869Z,21.47
2019-01-05T13:54:02.130Z,21.42
2019-01-05T13:56:51.670Z,21.44
2019-01-05T13:59:33.476Z,21.36
2019-01-05T14:02:26.613Z,21.42
2019-01-05T14:05:22.906Z,21.41
2019-01-05T14:08:28.245Z,21.40
2019-01-05T14:11:15.397Z,20.96
2019-01-05T14:14:14.602Z,21.38
2019-01-05T14:17:00.455Z,21.38
2019-01-05T14:19:55.730Z,21.39
2019-01-05T14:22:41.397Z,21.39
2019-01-05T14:25:28.474Z,21.39
2019-01-05T14:28:24.841Z,21.37
2019-01-05T14:31:10.553Z,21.32
2019-01-05T14:33:57.621Z,21.35
2019-01-05T14:36:56.383Z,21.35
2019-01-05T14:39:36.740Z,21.37
2019-01-05T14:42:22.757Z,21.34
2019-01-05T14:45:09.836Z,21.38
2019-01-05T14:47:55.714Z,21.41
2019-01-05T14:50:41.654Z,21.38
2019-01-05T14:53:27.468Z,21.39
2019-01-05T14:56:12.978Z,21.37
2019-01-05T14:58:58.750Z,21.39
2019-01-05T15:02:04.209Z,21.39
2019-01-05T15:04:50.101Z,21.40
2019-01-05T15:07:28.046Z,21.42
2019-01-05T15:10:13.748Z,21.41
2019-01-05T15:13:19.356Z,21.41
2019-01-05T15:16:13.413Z,21.42
2019-01-05T15:18:58.907Z,21.37
2019-01-05T15:21:44.622Z,21.41
2019-01-05T15:24:26.898Z,21.45
2019-01-05T15:27:19.831Z,21.43
2019-01-05T15:30:12.694Z,21.44
2019-01-05T15:32:58.361Z,21.46
2019-01-05T15:36:03.898Z,21.48
2019-01-05T15:38:49.822Z,21.48
2019-01-05T15:41:42.798Z,21.45
2019-01-05T15:44:28.454Z,21.48
2019-01-05T15:47:07.921Z,21.44
2019-01-05T15:50:01.067Z,21.38
2019-01-05T15:53:00.285Z,21.47
2019-01-05T15:55:49.263Z,21.52
2019-01-05T15:58:39.357Z,21.53
2019-01-05T16:01:25.222Z,21.52
2019-01-05T16:04:15.722Z,21.50
2019-01-05T16:07:01.457Z,21.54
2019-01-05T16:09:58.277Z,21.53
2019-01-05T16:12:44.219Z,21.59
2019-01-05T16:15:37.787Z,21.43
2019-01-05T16:18:43.498Z,21.54
2019-01-05T16:21:39.529Z,21.56
2019-01-05T16:24:26.662Z,21.57
2019-01-05T16:27:10.649Z,21.58
2019-01-05T16:29:57.750Z,21.50
2019-01-05T16:32:43.466Z,21.63
2019-01-05T16:35:29.098Z,21.53
2019-01-05T16:38:12.486Z,21.51
2019-01-05T16:40:56.143Z,21.48
2019-01-05T16:43:42.117Z,21.51
2019-01-05T16:46:44.312Z,21.51
2019-01-05T16:49:41.654Z,21.50
2019-01-05T16:52:27.861Z,21.54
2019-01-05T16:55:17.994Z,21.51
2019-01-05T16:58:04.392Z,21.48
2019-01-05T17:01:09.742Z,21.50
2019-01-05T17:03:59.337Z,21.51
2019-01-05T17:06:41.486Z,21.54
2019-01-05T17:09:31.736Z,21.57
2019-01-05T17:12:33.850Z,21.50
2019-01-05T17:15:30.049Z,21.51
2019-01-05T17:18:21.778Z,21.53
2019-01-05T17:21:24.475Z,21.58
2019-01-05T17:24:20.529Z,21.56
2019-01-05T17:27:07.604Z,21.53
2019-01-05T17:30:10.079Z,21.51
2019-01-05T17:32:55.817Z,21.49
2019-01-05T17:35:45.328Z,21.60
2019-01-05T17:38:47.789Z,21.53
2019-01-05T17:41:46.102Z,21.53
2019-01-05T17:44:59.741Z,21.58
2019-01-05T17:47:39.374Z,21.52
2019-01-05T17:50:25.387Z,21.53
2019-01-05T17:53:11.680Z,21.55
2019-01-05T17:56:00.425Z,21.54
2019-01-05T17:58:50.602Z,21.55
2019-01-05T18:01:37.724Z,21.56
2019-01-05T18:04:23.772Z,21.52
2019-01-05T18:07:20.213Z,21.53
2019-01-05T18:10:13.328Z,21.54
2019-01-05T18:12:57.365Z,21.53
2019-01-05T18:15:38.261Z,21.55
2019-01-05T18:18:30.170Z,21.51
2019-01-05T18:21:35.589Z,21.57
2019-01-05T18:24:20.023Z,21.55
2019-01-05T18:27:13.009Z,21.57
2019-01-05T18:29:58.699Z,21.54
2019-01-05T18:32:52.129Z,21.52
2019-01-05T18:35:31.730Z,21.53
2019-01-05T18:38:17.397Z,21.49
2019-01-05T18:41:07.606Z,21.49
2019-01-05T18:43:53.661Z,21.50
2019-01-05T18:46:39.890Z,21.58
2019-01-05T18:49:26.017Z,21.51
2019-01-05T18:52:13.232Z,21.60
2019-01-05T18:55:03.382Z,21.62
2019-01-05T18:57:50.470Z,21.60
2019-01-05T19:00:36.730Z,21.54
2019-01-05T19:03:26.847Z,21.54
2019-01-05T19:06:12.649Z,21.53
2019-01-05T19:08:58.637Z,21.56
2019-01-05T19:11:49.781Z,21.58
2019-01-05T19:14:35.694Z,21.55
2019-01-05T19:17:22.780Z,21.50
2019-01-05T19:20:19.072Z,21.53
2019-01-05T19:23:05.014Z,21.52
2019-01-05T19:26:03.013Z,21.50
2019-01-05T19:28:59.232Z,21.59
2019-01-05T19:31:52.241Z,21.54
2019-01-05T19:34:51.769Z,21.56
2019-01-05T19:37:54.385Z,21.59
2019-01-05T19:40:40.214Z,21.55
2019-01-05T19:43:26.266Z,21.56
2019-01-05T19:46:19.420Z,21.49
2019-01-05T19:49:18.051Z,21.53
2019-01-05T19:52:14.583Z,21.53
2019-01-05T19:55:00.493Z,21.53
2019-01-05T19:57:46.559Z,21.52
2019-01-05T20:00:36.438Z,21.47
2019-01-05T20:03:23.523Z,21.50
2019-01-05T20:06:19.916Z,21.48
2019-01-05T20:09:06.194Z,21.59
2019-01-05T20:11:59.142Z,21.47
2019-01-05T20:14:44.847Z,21.51
2019-01-05T20:17:50.069Z,21.55
2019-01-05T20:20:55.231Z,21.61
2019-01-05T20:23:54.405Z,21.56
2019-01-05T20:26:40.345Z,21.59
2019-01-05T20:29:22.011Z,21.58
2019-01-05T20:32:15.117Z,21.60
2019-01-05T20:35:02.247Z,21.56
2019-01-05T20:38:04.662Z,21.50
2019-01-05T20:40:51.797Z,21.46
2019-01-05T20:43:39.167Z,21.36
2019-01-05T20:46:24.885Z,21.40
2019-01-05T20:49:21.050Z,21.45
2019-01-05T20:52:26.594Z,21.48
2019-01-05T20:55:22.412Z,21.45
2019-01-05T20:58:12.178Z,21.47
2019-01-05T21:01:20.197Z,21.41
2019-01-05T21:04:10.321Z,21.40
2019-01-05T21:06:57.430Z,21.42
2019-01-05T21:09:42.558Z,21.42
2019-01-05T21:12:32.667Z,21.40
2019-01-05T21:15:18.296Z,21.44
2019-01-05T21:18:04.100Z,21.40
2019-01-05T21:21:06.285Z,21.37
2019-01-05T21:23:52.021Z,21.37
2019-01-05T21:26:37.857Z,21.38
2019-01-05T21:29:30.909Z,21.35
2019-01-05T21:32:21.061Z,21.45
2019-01-05T21:35:03.914Z,21.45
2019-01-05T21:37:48.652Z,21.35
2019-01-05T21:40:41.670Z,21.48
2019-01-05T21:43:47.311Z,21.42
2019-01-05T21:46:40.699Z,21.44
2019-01-05T21:49:35.799Z,21.46
2019-01-05T21:52:22.186Z,21.45
2019-01-05T21:55:15.646Z,21.47
2019-01-05T21:58:02.890Z,21.41
2019-01-05T22:00:56.259Z,21.46
2019-01-05T22:03:46.413Z,21.47
2019-01-05T22:06:52.229Z,21.45
2019-01-05T22:09:54.587Z,21.53
2019-01-05T22:12:37.051Z,21.44
2019-01-05T22:15:23.338Z,21.52
2019-01-05T22:18:09.219Z,21.41
2019-01-05T22:21:06.904Z,21.31
2019-01-05T22:23:59.890Z,21.44
2019-01-05T22:26:45.638Z,21.40
2019-01-05T22:29:32.836Z,21.41
2019-01-05T22:32:26.240Z,21.35
2019-01-05T22:35:12.421Z,21.43
2019-01-05T22:37:58.331Z,21.39
2019-01-05T22:41:03.857Z,21.41
2019-01-05T22:44:09.518Z,21.45
2019-01-05T22:46:55.273Z,21.46
2019-01-05T22:49:42.397Z,21.47
2019-01-05T22:52:35.669Z,21.41
2019-01-05T22:55:21.410Z,21.46
2019-01-05T22:58:07.510Z,21.48
2019-01-05T23:01:03.759Z,21.40
2019-01-05T23:03:49.983Z,21.45
2019-01-05T23:06:51.927Z,21.36
2019-01-05T23:09:38.006Z,20.84
2019-01-05T23:12:37.141Z,21.32
2019-01-05T23:15:33.114Z,21.34
2019-01-05T23:18:32.587Z,21.33
2019-01-05T23:21:31.714Z,21.38
2019-01-05T23:24:18.806Z,21.34
2019-01-05T23:27:08.716Z,21.47
2019-01-05T23:30:17.784Z,21.39
2019-01-05T23:33:04.755Z,21.32
2019-01-05T23:35:50.769Z,21.31
2019-01-05T23:38:50.570Z,21.25
2019-01-05T23:41:36.424Z,20.84
2019-01-05T23:44:23.582Z,21.30
2019-01-05T23:47:13.884Z,21.30
2019-01-05T23:49:59.974Z,21.32
2019-01-05T23:52:46.183Z,21.32
2019-01-05T23:55:42.567Z,21.29
2019-01-05T23:58:51.920Z,21.29
